La Grande, OR (97850)

5:30 AM PST on February 14, 2016 (GMT -0800)
La Grande | | Change Station
CLOSE
Current Station
Personal Weather Station
Location: La Grande, OR
Elevation: 2850 ft
Nearby Weather Stations

Elev 2850 ft 45.33 °N, 118.10 °W | Updated 20 minutes ago

Rain
Rain
37.8 °F
Feels Like 38 °F
N
0.0
Wind Variable Wind from North
Gusts 0.0 mph

Today
High -- | Low -- °F
--% Chance of Precip.
Yesterday
High -- | Low -- °F
Precip. -- in
Pressure 30.17 in
Visibility 10.0 miles
Clouds Few 2600 ft
Mostly Cloudy 3500 ft
Overcast 5500 ft
Windchill 38 °F
Dew Point 36 °F
Humidity 92%
Rainfall 0.19 in
Snow Depth Not available.
6:56 AM 5:18 PM
Waxing Crescent, 41% visible
METAR KLGD 141315Z AUTO 13007KT 10SM FEW026 BKN035 OVC055 04/01 A3017 RMK AO1
Pressure 30.17 in
Visibility 10.0 miles
Clouds Few 2600 ft
Mostly Cloudy 3500 ft
Overcast 5500 ft
Windchill 38 °F
Dew Point 36 °F
Humidity 92%
Rainfall 0.19 in
Snow Depth Not available.
6:56 AM 5:18 PM
Waxing Crescent, 41% visible
METAR KLGD 141315Z AUTO 13007KT 10SM FEW026 BKN035 OVC055 04/01 A3017 RMK AO1

10-Day Weather Forecast

Almanac

Astronomy

Feb. 14, 2016 Rise Set
Actual Time
Civil Twilight
Nautical Twilight
Astronomical Twilight
Moon
Length of Visible Light
Length of Day
Tomorrow will be .
, % of the Moon is Illuminated

Today's Extremes

State Highs State Lows

Community

WunderPhotos

Upload Photos

1,892,785 photos uploaded!

WunderBlog® & News

Nearby

Air Quality

  Air Quality AQ Index Pollutant
Not available.

Snow Depth

Station Depth Elevation

Earthquake Activity

City Distance Mag. Time & Date
Minimum magnitude displayed is 2.5.

Coastal Water Temperatures

Place Temperature

Stations

Nearby Weather Stations

Station Location Temp. Windchill Dew Point Humidity Wind Precip. Elev Updated Type
                   

Watches & Warnings

There are currently no watches in effect.